createdAt,value
2022-08-09T01:12:06.226Z,99510.34
2022-08-09T01:15:20.660Z,99507.75
2022-08-09T01:18:31.653Z,99429.94
2022-08-09T01:22:16.394Z,99502.97
2022-08-09T01:25:49.039Z,99446.25
2022-08-09T01:28:58.091Z,99393.63
2022-08-09T01:32:31.998Z,99487.03
2022-08-09T01:35:52.028Z,99389.44
2022-08-09T01:38:58.089Z,99441.38
2022-08-09T01:42:11.125Z,99396.75
2022-08-09T01:45:18.624Z,99390.28
2022-08-09T01:48:29.784Z,99487.22
2022-08-09T01:51:38.701Z,99463.56
2022-08-09T01:55:00.660Z,99387.41
2022-08-09T01:58:08.956Z,99477.06
2022-08-09T02:01:18.322Z,99464.22
2022-08-09T02:04:26.195Z,99474.41
2022-08-09T02:08:39.841Z,99445.88
2022-08-09T02:11:03.876Z,99457.50
2022-08-09T02:14:45.265Z,99360.16
2022-08-09T02:18:09.389Z,99457.31
2022-08-09T02:21:22.095Z,99456.41
2022-08-09T02:24:39.011Z,99441.81
2022-08-09T02:28:00.370Z,99461.69
2022-08-09T02:31:22.923Z,99445.94
2022-08-09T02:34:40.763Z,99450.47
2022-08-09T02:37:59.945Z,99443.44
2022-08-09T02:41:15.905Z,99442.41
2022-08-09T02:44:30.229Z,99429.69
2022-08-09T02:47:46.633Z,99420.09
2022-08-09T02:51:03.876Z,99425.31
2022-08-09T02:54:12.340Z,99416.72
2022-08-09T02:57:23.366Z,99412.13
2022-08-09T03:00:29.755Z,99415.16
2022-08-09T03:04:05.723Z,99403.50
2022-08-09T03:07:12.465Z,99405.69
2022-08-09T03:10:20.144Z,99416.34
2022-08-09T03:13:27.002Z,99407.81
2022-08-09T03:16:49.455Z,99393.06
2022-08-09T03:20:02.827Z,99394.22
2022-08-09T03:23:14.667Z,99398.53
2022-08-09T03:26:21.969Z,99398.97
2022-08-09T03:29:43.197Z,99392.25
2022-08-09T03:33:05.755Z,99377.28
2022-08-09T03:36:27.718Z,99369.81
2022-08-09T03:39:37.784Z,99374.81
2022-08-09T03:42:43.291Z,99365.56
2022-08-09T03:46:04.727Z,99368.78
2022-08-09T03:49:17.402Z,99354.47
2022-08-09T03:52:24.139Z,99361.56
2022-08-09T03:55:36.303Z,99344.00
2022-08-09T03:58:46.022Z,99346.81
2022-08-09T04:01:59.241Z,99339.03
2022-08-09T04:05:06.774Z,99356.00
2022-08-09T04:08:18.530Z,99342.81
2022-08-09T04:11:52.789Z,99337.84
2022-08-09T04:15:01.519Z,99330.81
2022-08-09T04:18:08.770Z,99335.66
2022-08-09T04:21:16.304Z,99331.91
2022-08-09T04:24:22.164Z,99345.19
2022-08-09T04:27:32.736Z,99330.88
2022-08-09T04:30:42.818Z,99327.25
2022-08-09T04:33:53.019Z,99304.53
2022-08-09T04:37:02.444Z,99318.41
2022-08-09T04:40:09.596Z,99326.50
2022-08-09T04:43:17.199Z,99312.53
2022-08-09T04:46:38.240Z,99287.28
2022-08-09T04:49:54.422Z,99314.75
2022-08-09T04:53:00.521Z,99315.59
2022-08-09T04:56:05.691Z,99273.28
2022-08-09T04:59:13.118Z,99327.75
2022-08-09T05:02:20.413Z,99314.84
2022-08-09T05:05:31.768Z,99295.13
2022-08-09T05:08:49.850Z,99314.16
2022-08-09T05:11:54.093Z,99309.41
2022-08-09T05:15:03.501Z,99312.25
2022-08-09T05:18:39.941Z,99306.88
2022-08-09T05:21:47.320Z,99290.88
2022-08-09T05:25:01.131Z,99300.81
2022-08-09T05:28:07.975Z,99277.03
2022-08-09T05:31:12.527Z,99305.69
2022-08-09T05:34:17.757Z,99311.22
2022-08-09T05:37:22.985Z,99296.78
2022-08-09T05:40:29.548Z,99301.84
2022-08-09T05:43:36.191Z,99268.97
2022-08-09T05:46:41.113Z,99302.63
2022-08-09T05:50:24.021Z,99291.41
2022-08-09T05:53:31.610Z,99292.47
2022-08-09T05:56:38.000Z,99302.09
2022-08-09T06:00:00.187Z,99290.09
2022-08-09T06:03:10.864Z,99181.28
2022-08-09T06:06:17.172Z,99301.78
2022-08-09T06:09:23.141Z,99298.91
2022-08-09T06:12:46.443Z,99295.69
2022-08-09T06:16:05.385Z,99303.69
2022-08-09T06:19:10.155Z,99264.69
2022-08-09T06:22:16.468Z,99288.09
2022-08-09T06:25:22.740Z,99290.47
2022-08-09T06:28:32.010Z,99296.28
2022-08-09T06:32:08.957Z,99305.09
2022-08-09T06:35:06.389Z,99292.25
2022-08-09T06:38:11.616Z,99297.13
2022-08-09T06:41:20.593Z,99289.44
2022-08-09T06:44:25.537Z,99293.38
2022-08-09T06:47:39.820Z,99289.84
2022-08-09T06:50:47.187Z,99294.97
2022-08-09T06:53:55.003Z,99284.22
2022-08-09T06:56:59.946Z,99275.22
2022-08-09T07:00:56.552Z,99278.16
2022-08-09T07:03:30.810Z,99276.97
2022-08-09T07:06:36.225Z,99275.31
2022-08-09T07:09:56.090Z,99289.88
2022-08-09T07:13:05.404Z,99282.88
2022-08-09T07:16:42.430Z,99276.09
2022-08-09T07:19:55.405Z,99277.13
2022-08-09T07:23:00.508Z,99263.91
2022-08-09T07:26:05.942Z,99284.00
2022-08-09T07:29:13.410Z,99274.94
2022-08-09T07:32:18.393Z,99265.44
2022-08-09T07:35:27.669Z,99281.25
2022-08-09T07:38:35.034Z,99286.72
2022-08-09T07:41:41.660Z,99257.06
2022-08-09T07:44:52.473Z,99263.88
2022-08-09T07:48:04.904Z,99256.78
2022-08-09T07:52:06.333Z,99263.53
2022-08-09T07:54:35.143Z,99265.91
2022-08-09T07:57:46.878Z,99265.03
2022-08-09T08:00:59.072Z,99262.28
2022-08-09T08:04:11.385Z,99262.84
2022-08-09T08:08:44.301Z,99256.41
2022-08-09T08:11:03.074Z,99234.00
2022-08-09T08:14:06.837Z,99243.16
2022-08-09T08:17:24.667Z,99252.88
2022-08-09T08:20:37.822Z,99256.56
2022-08-09T08:23:55.651Z,99252.41
2022-08-09T08:27:01.166Z,99237.63
2022-08-09T08:30:05.835Z,99238.25
2022-08-09T08:33:12.008Z,99243.97
2022-08-09T08:36:30.564Z,99236.38
2022-08-09T08:39:39.772Z,99245.84
2022-08-09T08:42:48.742Z,99255.22
2022-08-09T08:46:10.128Z,99258.34
2022-08-09T08:49:38.306Z,99269.91
2022-08-09T08:52:58.248Z,99267.25
2022-08-09T08:56:04.963Z,99267.63
2022-08-09T08:59:19.741Z,99281.34
2022-08-09T09:02:30.929Z,99275.63
2022-08-09T09:06:00.394Z,99288.25
2022-08-09T09:09:02.141Z,99275.09
2022-08-09T09:12:29.246Z,99277.44
2022-08-09T09:15:34.501Z,99255.84
2022-08-09T09:18:39.283Z,99278.56
2022-08-09T09:22:07.476Z,99267.28
2022-08-09T09:26:01.464Z,99273.38
2022-08-09T09:28:39.153Z,99293.50
2022-08-09T09:32:15.508Z,99301.84
2022-08-09T09:35:20.551Z,99298.84
2022-08-09T09:38:40.514Z,99271.28
2022-08-09T09:41:49.339Z,99357.09
2022-08-09T09:45:00.345Z,99377.22
2022-08-09T09:48:10.639Z,99314.44
2022-08-09T09:51:38.128Z,99299.22
2022-08-09T09:54:55.192Z,99309.19
2022-08-09T09:58:16.385Z,99302.75
2022-08-09T10:01:37.201Z,99306.72
2022-08-09T10:04:44.207Z,99308.34
2022-08-09T10:08:11.131Z,99328.75
2022-08-09T10:12:00.950Z,99335.59
2022-08-09T10:15:17.489Z,99305.78
2022-08-09T10:18:30.541Z,99306.13
2022-08-09T10:21:46.156Z,99317.72
2022-08-09T10:24:54.353Z,99342.38
2022-08-09T10:27:59.745Z,99319.84
2022-08-09T10:34:33.603Z,99313.47
2022-08-09T10:37:40.687Z,99328.16
2022-08-09T10:40:50.285Z,99347.50
2022-08-09T10:44:02.030Z,99337.44
2022-08-09T10:48:12.589Z,99362.47
2022-08-09T10:51:07.603Z,99372.28
2022-08-09T10:54:14.686Z,99349.50
2022-08-09T10:57:19.378Z,99347.69
2022-08-09T11:00:30.467Z,99350.75
2022-08-09T11:03:50.098Z,99357.34
2022-08-09T11:07:06.963Z,99363.97
2022-08-09T11:10:11.577Z,99363.38
2022-08-09T11:13:51.063Z,99376.66
2022-08-09T11:16:42.317Z,99390.03
2022-08-09T11:20:09.773Z,99392.09
2022-08-09T11:23:23.858Z,99374.13
2022-08-09T11:26:52.223Z,99392.81
2022-08-09T11:30:05.224Z,99397.94
2022-08-09T11:33:21.798Z,99395.75
2022-08-09T11:36:30.341Z,99388.41
2022-08-09T11:40:03.957Z,99388.66
2022-08-09T11:43:08.632Z,99397.97
2022-08-09T11:46:26.651Z,99380.34
2022-08-09T11:50:54.250Z,99388.16
2022-08-09T11:53:58.423Z,99392.81
2022-08-09T11:57:47.480Z,99395.78
2022-08-09T12:01:09.013Z,99378.78
2022-08-09T12:04:23.541Z,99360.69
2022-08-09T12:07:41.280Z,99361.75
2022-08-09T12:11:01.054Z,99382.56
2022-08-09T12:14:28.536Z,99375.94
2022-08-09T12:17:42.215Z,99389.88
2022-08-09T12:20:49.322Z,99381.69
2022-08-09T12:24:06.399Z,99386.22
2022-08-09T12:29:13.651Z,99379.38
2022-08-09T12:30:48.185Z,99381.44
2022-08-09T12:34:01.027Z,99385.19
2022-08-09T12:37:09.724Z,99379.66
2022-08-09T12:40:29.405Z,99376.22
2022-08-09T12:44:04.881Z,99383.81
2022-08-09T12:47:00.076Z,99387.88
2022-08-09T12:50:19.959Z,99372.97
2022-08-09T12:53:37.749Z,99395.31
2022-08-09T12:56:53.802Z,99394.94
2022-08-09T13:00:25.253Z,99383.69
2022-08-09T13:03:57.066Z,99398.09
2022-08-09T13:06:58.400Z,99397.28
2022-08-09T13:10:04.537Z,99379.16
2022-08-09T13:13:11.444Z,99395.28
2022-08-09T13:16:17.783Z,99400.66
2022-08-09T13:20:10.451Z,99401.66
2022-08-09T13:23:05.992Z,99400.72
2022-08-09T13:26:44.605Z,99415.69
2022-08-09T13:30:51.031Z,99401.03
2022-08-09T13:33:52.748Z,99406.91
2022-08-09T13:37:02.938Z,99402.72
2022-08-09T13:41:55.279Z,99402.97
2022-08-09T13:43:39.632Z,99417.13
2022-08-09T13:47:25.355Z,99419.72
2022-08-09T13:50:29.869Z,99408.59
2022-08-09T13:53:42.913Z,99405.53
2022-08-09T13:56:48.457Z,99404.41
2022-08-09T13:59:53.008Z,99393.44
2022-08-09T14:03:04.610Z,99404.41
2022-08-09T14:06:26.770Z,99405.84
2022-08-09T14:09:34.861Z,99402.63
2022-08-09T14:12:41.107Z,99401.13
2022-08-09T14:16:10.068Z,99402.03
2022-08-09T14:19:10.598Z,99402.91
2022-08-09T14:22:15.885Z,99400.97
2022-08-09T14:25:20.761Z,99379.38
2022-08-09T14:28:26.863Z,99411.38
2022-08-09T14:31:49.929Z,99408.47
2022-08-09T14:34:56.888Z,99398.06
2022-08-09T14:38:03.090Z,99409.31
2022-08-09T14:41:34.376Z,99398.38
2022-08-09T14:44:48.447Z,99411.91
2022-08-09T14:48:00.180Z,99409.03
2022-08-09T14:51:07.292Z,99408.47
2022-08-09T14:54:22.369Z,99406.13
2022-08-09T14:57:32.006Z,99407.44
2022-08-09T15:00:51.142Z,99421.25
2022-08-09T15:03:56.597Z,99413.63
2022-08-09T15:07:01.244Z,99412.66
2022-08-09T15:10:10.798Z,99398.88
2022-08-09T15:13:18.541Z,99421.78
2022-08-09T15:16:23.286Z,99407.75
2022-08-09T15:19:35.915Z,99414.50
2022-08-09T15:22:46.485Z,99403.13
2022-08-09T15:25:51.852Z,99399.91
2022-08-09T15:28:56.563Z,99403.44
2022-08-09T15:32:01.402Z,99395.75
2022-08-09T15:35:18.470Z,99402.06
2022-08-09T15:38:33.171Z,99396.06
2022-08-09T15:41:42.025Z,99407.00
2022-08-09T15:44:48.913Z,99387.69
2022-08-09T15:48:05.619Z,99379.09
2022-08-09T15:51:44.161Z,99394.03
2022-08-09T15:54:46.219Z,99389.63
2022-08-09T15:57:53.448Z,99399.94
2022-08-09T16:00:59.290Z,99395.13
2022-08-09T16:04:04.405Z,99383.44
2022-08-09T16:07:09.447Z,99400.47
2022-08-09T16:10:38.463Z,99398.31
2022-08-09T16:14:02.582Z,99394.25
2022-08-09T16:17:05.705Z,99395.72
2022-08-09T16:20:12.623Z,99395.75
2022-08-09T16:23:20.002Z,99393.28
2022-08-09T16:26:35.528Z,99400.88
2022-08-09T16:29:50.583Z,99389.97
2022-08-09T16:33:12.194Z,99382.88
2022-08-09T16:36:20.794Z,99401.44
2022-08-09T16:39:39.952Z,99399.72
2022-08-09T16:42:55.883Z,99389.00
2022-08-09T16:46:00.908Z,99398.53
2022-08-09T16:49:16.902Z,99399.50
2022-08-09T16:52:31.892Z,99391.97
2022-08-09T16:55:58.613Z,99361.22
2022-08-09T16:59:10.287Z,99391.66
2022-08-09T17:02:15.584Z,99391.13
2022-08-09T17:05:22.788Z,99389.19
2022-08-09T17:09:00.071Z,99386.84
2022-08-09T17:12:10.477Z,99382.78
2022-08-09T17:15:30.461Z,99387.06
2022-08-09T17:18:45.228Z,99379.66
2022-08-09T17:21:54.556Z,99386.97
2022-08-09T17:25:04.801Z,99377.41
2022-08-09T17:28:15.313Z,99308.72
2022-08-09T17:31:24.341Z,99378.47
2022-08-09T17:35:01.491Z,99381.47
2022-08-09T17:38:11.431Z,99308.63
2022-08-09T17:41:19.211Z,99351.06
2022-08-09T17:44:42.010Z,99378.47
2022-08-09T17:47:55.724Z,99371.50
2022-08-09T17:51:10.366Z,99384.91
2022-08-09T17:54:25.356Z,99374.19
2022-08-09T17:58:03.626Z,99370.66
2022-08-09T18:00:59.560Z,99382.78
2022-08-09T18:04:05.273Z,99375.69
2022-08-09T18:07:10.522Z,99389.84
2022-08-09T18:10:30.070Z,99375.81
2022-08-09T18:13:43.521Z,99394.56
2022-08-09T18:17:01.980Z,99383.75
2022-08-09T18:20:53.737Z,99384.28
2022-08-09T18:24:10.268Z,99383.19
2022-08-09T18:27:01.096Z,99385.47
2022-08-09T18:30:34.962Z,99368.84
2022-08-09T18:33:34.452Z,99378.78
2022-08-09T18:36:39.919Z,99367.97
2022-08-09T18:39:48.319Z,99375.81
2022-08-09T18:42:54.168Z,99368.41
2022-08-09T18:46:47.112Z,99355.09
2022-08-09T18:49:25.945Z,99377.22
2022-08-09T18:52:34.992Z,99370.88
2022-08-09T18:55:45.478Z,99375.28
2022-08-09T18:59:03.529Z,99377.41
